sensor_id;sensor_type;location;lat;lon;timestamp;P1;durP1;ratioP1;P2;durP2;ratioP2
27869;SDS011;15225;50.730;4.244;2023-04-10T18:50:23;21.23;;;9.10;;
27869;SDS011;15225;50.730;4.244;2023-04-10T18:52:48;19.13;;;7.75;;
27869;SDS011;15225;50.730;4.244;2023-04-10T18:55:14;22.63;;;8.25;;
27869;SDS011;15225;50.730;4.244;2023-04-10T18:57:40;16.23;;;7.50;;
27869;SDS011;15225;50.730;4.244;2023-04-10T19:00:06;20.45;;;7.82;;
27869;SDS011;15225;50.730;4.244;2023-04-10T19:02:33;19.48;;;7.28;;
27869;SDS011;15225;50.730;4.244;2023-04-10T19:04:59;22.70;;;7.47;;
27869;SDS011;15225;50.730;4.244;2023-04-10T19:07:24;21.38;;;7.80;;
27869;SDS011;15225;50.730;4.244;2023-04-10T19:09:50;19.77;;;7.75;;
27869;SDS011;15225;50.730;4.244;2023-04-10T19:12:16;20.00;;;7.63;;
27869;SDS011;15225;50.730;4.244;2023-04-10T19:14:41;17.02;;;6.53;;
27869;SDS011;15225;50.730;4.244;2023-04-10T19:17:07;20.08;;;5.78;;
27869;SDS011;15225;50.730;4.244;2023-04-10T19:19:33;14.70;;;5.97;;
27869;SDS011;15225;50.730;4.244;2023-04-10T19:21:58;14.25;;;6.38;;
27869;SDS011;15225;50.730;4.244;2023-04-10T19:24:25;13.70;;;5.25;;
27869;SDS011;15225;50.730;4.244;2023-04-10T19:26:51;15.80;;;5.97;;
27869;SDS011;15225;50.730;4.244;2023-04-10T19:29:17;13.07;;;5.07;;
27869;SDS011;15225;50.730;4.244;2023-04-10T19:31:42;15.55;;;5.60;;
27869;SDS011;15225;50.730;4.244;2023-04-10T19:34:08;21.17;;;5.95;;
27869;SDS011;15225;50.730;4.244;2023-04-10T19:36:35;14.77;;;5.45;;
27869;SDS011;15225;50.730;4.244;2023-04-10T19:39:02;16.20;;;6.07;;
27869;SDS011;15225;50.730;4.244;2023-04-10T19:41:28;18.55;;;6.60;;
27869;SDS011;15225;50.730;4.244;2023-04-10T19:43:54;13.57;;;5.45;;
27869;SDS011;15225;50.730;4.244;2023-04-10T19:46:20;15.95;;;5.30;;
27869;SDS011;15225;50.730;4.244;2023-04-10T19:48:46;14.93;;;5.32;;
27869;SDS011;15225;50.730;4.244;2023-04-10T19:51:13;13.27;;;5.07;;
27869;SDS011;15225;50.730;4.244;2023-04-10T19:53:39;20.55;;;5.70;;
27869;SDS011;15225;50.730;4.244;2023-04-10T19:56:06;15.23;;;5.25;;
27869;SDS011;15225;50.730;4.244;2023-04-10T19:58:32;16.45;;;6.07;;
27869;SDS011;15225;50.730;4.244;2023-04-10T20:01:04;16.67;;;5.43;;
27869;SDS011;15225;50.730;4.244;2023-04-10T20:03:30;11.75;;;5.40;;
27869;SDS011;15225;50.730;4.244;2023-04-10T20:05:58;14.98;;;6.15;;
27869;SDS011;15225;50.730;4.244;2023-04-10T20:08:24;13.50;;;5.25;;
27869;SDS011;15225;50.730;4.244;2023-04-10T20:10:50;18.20;;;5.57;;
27869;SDS011;15225;50.730;4.244;2023-04-10T20:13:15;18.55;;;5.82;;
27869;SDS011;15225;50.730;4.244;2023-04-10T20:15:42;14.27;;;5.20;;
27869;SDS011;15225;50.730;4.244;2023-04-10T20:18:07;13.23;;;5.40;;
27869;SDS011;15225;50.730;4.244;2023-04-10T20:20:33;16.65;;;6.40;;
27869;SDS011;15225;50.730;4.244;2023-04-10T20:22:59;13.85;;;5.28;;
27869;SDS011;15225;50.730;4.244;2023-04-10T20:25:24;13.10;;;5.18;;
27869;SDS011;15225;50.730;4.244;2023-04-10T20:27:50;15.18;;;5.65;;
27869;SDS011;15225;50.730;4.244;2023-04-10T20:30:16;16.58;;;5.65;;
27869;SDS011;15225;50.730;4.244;2023-04-10T20:32:41;19.88;;;5.57;;
